createdAt,value
2022-08-16T00:03:45.568Z,12.05
2022-08-16T00:08:49.106Z,10.82
2022-08-16T00:13:55.734Z,14.10
2022-08-16T00:18:59.545Z,14.85
2022-08-16T00:24:04.684Z,15.95
2022-08-16T00:29:10.298Z,12.48
2022-08-16T00:34:18.334Z,15.30
2022-08-16T00:39:22.112Z,16.60
2022-08-16T00:44:31.810Z,13.43
2022-08-16T00:49:39.489Z,12.10
2022-08-16T00:54:48.095Z,11.63
2022-08-16T00:59:59.049Z,10.75
2022-08-16T01:05:09.632Z,14.07
2022-08-16T01:10:16.158Z,14.35
2022-08-16T01:15:22.104Z,13.30
2022-08-16T01:20:34.049Z,19.88
2022-08-16T01:25:44.245Z,11.00
2022-08-16T01:30:53.546Z,11.73
2022-08-16T01:36:00.277Z,14.73
2022-08-16T01:41:08.479Z,13.85
2022-08-16T01:46:31.244Z,13.52
2022-08-16T01:51:44.480Z,13.77
2022-08-16T01:56:49.353Z,13.40
2022-08-16T02:01:59.735Z,10.88
2022-08-16T02:07:08.899Z,12.43
2022-08-16T02:12:42.078Z,12.23
2022-08-16T02:17:40.801Z,12.38
2022-08-16T02:22:44.342Z,8.77
2022-08-16T02:27:52.069Z,14.65
2022-08-16T02:32:56.012Z,10.90
2022-08-16T02:38:01.852Z,15.25
2022-08-16T02:43:14.114Z,11.15
2022-08-16T02:48:29.848Z,17.00
2022-08-16T02:53:35.155Z,10.43
2022-08-16T02:58:40.294Z,13.68
2022-08-16T03:04:41.057Z,15.57
2022-08-16T03:09:15.001Z,11.93
2022-08-16T03:14:24.583Z,10.63
2022-08-16T03:19:42.194Z,12.27
2022-08-16T03:24:52.194Z,12.07
2022-08-16T03:29:56.916Z,12.67
2022-08-16T03:35:00.284Z,11.30
2022-08-16T03:40:03.968Z,12.80
2022-08-16T03:45:10.341Z,11.82
2022-08-16T03:50:25.896Z,13.50
2022-08-16T03:55:45.099Z,13.85
2022-08-16T04:00:59.303Z,11.70
2022-08-16T04:06:03.065Z,14.70
2022-08-16T04:11:06.857Z,12.80
2022-08-16T04:16:27.161Z,17.38
2022-08-16T04:21:32.484Z,12.70
2022-08-16T04:26:36.312Z,8.70
2022-08-16T04:31:41.027Z,11.68
2022-08-16T04:36:48.908Z,10.50
2022-08-16T04:41:56.915Z,8.55
2022-08-16T04:47:21.633Z,12.10
2022-08-16T04:52:34.166Z,9.75
2022-08-16T04:57:39.389Z,11.10
2022-08-16T05:02:46.966Z,8.38
2022-08-16T05:08:00.221Z,9.35
2022-08-16T05:13:05.866Z,9.65
2022-08-16T05:18:15.790Z,9.98
2022-08-16T05:23:21.100Z,9.55
2022-08-16T05:28:37.366Z,10.65
2022-08-16T05:33:42.517Z,9.40
2022-08-16T05:38:46.950Z,9.88
2022-08-16T05:43:50.539Z,9.65
2022-08-16T05:49:05.801Z,10.38
2022-08-16T05:54:17.429Z,10.70
2022-08-16T05:59:28.460Z,9.65
2022-08-16T06:04:36.507Z,12.95
2022-08-16T06:09:43.759Z,10.75
2022-08-16T06:14:47.906Z,13.23
2022-08-16T06:19:56.258Z,10.95
2022-08-16T06:24:59.640Z,9.07
2022-08-16T06:30:04.087Z,15.90
2022-08-16T06:35:11.900Z,17.02
2022-08-16T06:40:16.053Z,9.85
2022-08-16T06:45:19.708Z,11.30
2022-08-16T06:50:28.680Z,9.07
2022-08-16T06:55:34.819Z,12.17
2022-08-16T07:00:43.035Z,15.73
2022-08-16T07:05:48.132Z,8.10
2022-08-16T07:10:53.220Z,9.43
2022-08-16T07:15:56.910Z,10.35
2022-08-16T07:21:02.324Z,11.10
2022-08-16T07:26:08.864Z,9.02
2022-08-16T07:31:14.349Z,8.25
2022-08-16T07:36:22.181Z,7.68
2022-08-16T07:41:25.698Z,9.48
2022-08-16T07:46:38.471Z,9.30
2022-08-16T07:51:45.043Z,7.20
2022-08-16T07:56:48.487Z,8.32
2022-08-16T08:01:53.304Z,6.75
2022-08-16T08:06:58.130Z,8.35
2022-08-16T08:12:05.578Z,10.75
2022-08-16T08:17:09.353Z,10.45
2022-08-16T08:22:19.257Z,8.93
2022-08-16T08:27:25.994Z,6.68
2022-08-16T08:33:01.823Z,10.05
2022-08-16T08:37:56.399Z,11.25
2022-08-16T08:43:11.968Z,6.68
2022-08-16T08:48:34.927Z,7.93
2022-08-16T08:53:40.539Z,11.30
2022-08-16T08:58:54.846Z,8.93
2022-08-16T09:04:04.845Z,7.82
2022-08-16T09:09:16.863Z,9.07
2022-08-16T09:14:23.886Z,6.65
2022-08-16T09:19:32.212Z,7.20
2022-08-16T09:24:52.607Z,6.38
2022-08-16T09:29:59.845Z,10.63
2022-08-16T09:35:06.719Z,7.25
2022-08-16T09:40:31.863Z,7.97
2022-08-16T09:45:39.241Z,8.40
2022-08-16T09:50:44.587Z,11.82
2022-08-16T09:55:51.255Z,6.53
2022-08-16T10:00:54.920Z,7.43
2022-08-16T10:06:00.178Z,10.45
2022-08-16T10:11:24.622Z,9.45
2022-08-16T10:16:28.496Z,8.00
2022-08-16T10:21:33.321Z,9.10
2022-08-16T10:27:17.190Z,5.95
2022-08-16T10:32:03.518Z,6.90
2022-08-16T10:37:07.162Z,7.97
2022-08-16T10:42:14.365Z,8.20
2022-08-16T10:47:17.895Z,7.75
2022-08-16T10:52:21.299Z,9.20
2022-08-16T10:57:32.851Z,8.27
2022-08-16T11:02:57.879Z,11.35
2022-08-16T11:08:00.549Z,8.25
2022-08-16T11:13:57.267Z,9.45
2022-08-16T11:18:48.187Z,5.32
2022-08-16T11:24:01.421Z,8.07
2022-08-16T11:29:15.275Z,7.00
2022-08-16T11:34:19.765Z,4.95
2022-08-16T11:39:24.632Z,10.13
2022-08-16T11:44:52.519Z,9.60
2022-08-16T11:49:53.318Z,8.25
2022-08-16T11:54:57.218Z,7.30
2022-08-16T12:00:08.118Z,7.90
2022-08-16T12:05:32.230Z,8.50
2022-08-16T12:10:37.696Z,9.43
2022-08-16T12:15:43.927Z,8.52
2022-08-16T12:20:51.122Z,7.38
2022-08-16T12:25:58.814Z,4.75
2022-08-16T12:31:04.635Z,5.50
2022-08-16T12:36:09.927Z,5.78
2022-08-16T12:41:19.096Z,8.40
2022-08-16T12:46:30.912Z,6.32
2022-08-16T12:51:58.208Z,7.82
2022-08-16T12:57:02.524Z,6.40
2022-08-16T13:02:07.834Z,8.05
2022-08-16T13:07:16.359Z,5.50
2022-08-16T13:12:23.812Z,8.88
2022-08-16T13:17:30.486Z,9.55
2022-08-16T13:22:33.909Z,6.40
2022-08-16T13:28:01.681Z,6.05
2022-08-16T13:38:21.622Z,9.48
2022-08-16T13:43:32.590Z,9.32
2022-08-16T13:48:43.977Z,5.60
2022-08-16T13:53:59.524Z,6.07
2022-08-16T13:59:19.133Z,7.97
2022-08-16T14:04:26.583Z,8.27
2022-08-16T14:09:32.326Z,7.75
2022-08-16T14:14:37.481Z,7.22
2022-08-16T14:19:44.886Z,6.55
2022-08-16T14:24:50.573Z,9.85
2022-08-16T14:29:55.388Z,6.70
2022-08-16T14:35:02.029Z,5.43
2022-08-16T14:40:09.664Z,6.97
2022-08-16T14:45:16.095Z,6.82
2022-08-16T14:50:24.033Z,9.07
2022-08-16T14:55:31.965Z,5.80
2022-08-16T15:00:36.769Z,7.38
2022-08-16T15:05:42.548Z,6.85
2022-08-16T15:10:46.383Z,7.97
2022-08-16T15:15:58.784Z,8.32
2022-08-16T15:21:08.422Z,10.02
2022-08-16T15:26:21.547Z,9.10
2022-08-16T15:31:37.395Z,8.40
2022-08-16T15:36:42.998Z,8.90
2022-08-16T15:42:01.162Z,5.78
2022-08-16T15:47:08.042Z,8.05
2022-08-16T15:52:18.338Z,10.55
2022-08-16T15:57:24.281Z,12.82
2022-08-16T16:02:30.912Z,7.65
2022-08-16T16:07:40.633Z,8.68
2022-08-16T16:12:58.126Z,7.53
2022-08-16T16:18:09.599Z,10.45
2022-08-16T16:23:17.750Z,12.48
2022-08-16T16:28:46.349Z,12.70
2022-08-16T16:33:50.325Z,10.68
2022-08-16T16:38:56.045Z,10.13
2022-08-16T16:44:01.403Z,9.93
2022-08-16T16:49:07.631Z,15.18
2022-08-16T16:54:13.011Z,12.77
2022-08-16T16:59:18.773Z,18.00
2022-08-16T17:04:31.587Z,13.73
2022-08-16T17:09:40.231Z,10.95
2022-08-16T17:14:44.136Z,12.50
2022-08-16T17:19:49.580Z,14.45
2022-08-16T17:24:54.899Z,11.77
2022-08-16T17:29:58.736Z,13.80
2022-08-16T17:35:10.192Z,13.40
2022-08-16T17:40:25.507Z,15.30
2022-08-16T17:45:41.011Z,14.73
2022-08-16T17:50:46.089Z,16.05
2022-08-16T17:55:51.829Z,19.15
2022-08-16T18:00:57.526Z,13.75
2022-08-16T18:06:00.957Z,17.50
2022-08-16T18:11:06.003Z,14.27
2022-08-16T18:16:11.637Z,14.88
2022-08-16T18:21:34.037Z,15.80
2022-08-16T18:26:39.677Z,19.65
2022-08-16T18:31:43.386Z,19.77
2022-08-16T18:36:46.700Z,21.75
2022-08-16T18:41:51.696Z,25.30
2022-08-16T18:46:55.097Z,16.52
2022-08-16T18:51:59.224Z,23.35
2022-08-16T18:57:07.887Z,22.33
2022-08-16T19:02:57.644Z,18.27
2022-08-16T19:07:34.876Z,25.15
2022-08-16T19:12:42.215Z,26.17
2022-08-16T19:17:46.717Z,24.33
2022-08-16T19:23:10.457Z,22.88
2022-08-16T19:28:49.708Z,23.27
2022-08-16T19:33:39.734Z,22.27
2022-08-16T19:43:49.190Z,23.90
2022-08-16T19:48:52.561Z,21.95
2022-08-16T19:53:55.877Z,21.90
2022-08-16T20:04:25.935Z,24.55
2022-08-16T20:09:30.108Z,21.52
2022-08-16T20:14:34.883Z,20.35
2022-08-16T20:19:40.545Z,20.75
2022-08-16T20:24:44.792Z,19.48
2022-08-16T20:34:55.671Z,21.63
2022-08-16T20:40:28.307Z,21.25
2022-08-16T20:45:27.075Z,20.33
2022-08-16T20:50:31.528Z,22.70
2022-08-16T20:55:36.148Z,22.25
2022-08-16T21:00:41.334Z,21.15
2022-08-16T21:05:45.458Z,22.10
2022-08-16T21:10:50.143Z,25.15
2022-08-16T21:21:01.641Z,22.15
2022-08-16T21:26:10.866Z,25.02
2022-08-16T21:31:40.887Z,23.27
2022-08-16T21:36:44.430Z,20.13
2022-08-16T21:42:01.259Z,20.38
2022-08-16T21:47:10.129Z,23.55
2022-08-16T21:52:26.195Z,23.00
2022-08-16T21:57:38.305Z,19.92
2022-08-16T22:02:45.611Z,23.08
2022-08-16T22:08:05.552Z,20.83
2022-08-16T22:13:18.454Z,23.50
2022-08-16T22:18:23.793Z,18.70
2022-08-16T22:23:32.062Z,19.83
2022-08-16T22:28:35.895Z,19.88
2022-08-16T22:33:47.468Z,21.10
2022-08-16T22:38:55.844Z,22.17
2022-08-16T22:44:01.173Z,20.30
2022-08-16T22:49:19.537Z,20.23
2022-08-16T22:54:41.486Z,21.48
2022-08-16T22:59:47.252Z,19.88
2022-08-16T23:04:58.566Z,23.08
2022-08-16T23:10:05.694Z,20.20
2022-08-16T23:15:14.028Z,17.30
2022-08-16T23:20:24.255Z,21.83
2022-08-16T23:25:30.502Z,16.95
2022-08-16T23:30:40.515Z,17.92
2022-08-16T23:35:48.261Z,19.30
2022-08-16T23:40:52.151Z,16.98
2022-08-16T23:46:04.021Z,19.05
2022-08-16T23:51:16.417Z,21.90
2022-08-16T23:56:21.676Z,18.45
